Time;durP1;ratioP1;P1;durP2;ratioP2;P2;SDS_P1;SDS_P2;PMS_P1;PMS_P2;Temp;Humidity;BMP_temperature;BMP_pressure;BME280_temperature;BME280_humidity;BME280_pressure;Samples;Min_cycle;Max_cycle;Signal;HPM_P1;HPM_P2
2023/08/18 00:01:25;;;;;;;0.00;0.00;;;;;;;;;;5094325;28;20044;-78
2023/08/18 00:03:52;;;;;;;0.00;0.00;;;;;;;;;;5076161;28;20107;-78
2023/08/18 00:06:18;;;;;;;0.00;0.00;;;;;;;;;;5094035;28;20031;-78
2023/08/18 00:08:44;;;;;;;0.15;0.10;;;;;;;;;;5094217;28;20024;-79
2023/08/18 00:11:10;;;;;;;0.03;0.03;;;;;;;;;;5094262;28;20024;-78
2023/08/18 00:13:36;;;;;;;0.20;0.20;;;;;;;;;;5094214;28;20024;-78
2023/08/18 00:16:02;;;;;;;0.00;0.00;;;;;;;;;;5094153;28;20024;-78
2023/08/18 00:18:29;;;;;;;0.00;0.00;;;;;;;;;;5093728;28;20048;-78
2023/08/18 00:20:55;;;;;;;0.40;0.38;;;;;;;;;;5093654;28;20035;-78
2023/08/18 00:23:21;;;;;;;0.00;0.00;;;;;;;;;;5094013;28;20448;-78
2023/08/18 00:25:47;;;;;;;0.10;0.10;;;;;;;;;;5073721;28;20056;-78
2023/08/18 00:28:13;;;;;;;0.10;0.10;;;;;;;;;;5073508;28;20039;-78
2023/08/18 00:30:39;;;;;;;0.10;0.10;;;;;;;;;;5073645;28;20058;-78
2023/08/18 00:33:05;;;;;;;0.20;0.20;;;;;;;;;;5073390;28;20025;-78
2023/08/18 00:35:31;;;;;;;0.10;0.10;;;;;;;;;;5073122;28;20020;-78
2023/08/18 00:37:57;;;;;;;0.20;0.20;;;;;;;;;;5091126;28;20036;-78
2023/08/18 00:40:23;;;;;;;0.10;0.10;;;;;;;;;;5093608;28;20540;-78
2023/08/18 00:42:49;;;;;;;0.03;0.03;;;;;;;;;;5093676;28;20016;-78
2023/08/18 00:45:16;;;;;;;0.05;0.05;;;;;;;;;;5093625;28;20035;-78
2023/08/18 00:47:42;;;;;;;0.13;0.13;;;;;;;;;;5093527;28;20392;-78
2023/08/18 00:50:10;;;;;;;0.10;0.10;;;;;;;;;;5093255;28;20038;-77
2023/08/18 00:52:37;;;;;;;0.10;0.10;;;;;;;;;;5093386;28;20024;-78
2023/08/18 00:55:03;;;;;;;0.20;0.20;;;;;;;;;;5093300;28;20039;-78
2023/08/18 00:57:29;;;;;;;0.20;0.08;;;;;;;;;;5093345;28;20028;-78
2023/08/18 00:59:56;;;;;;;0.52;0.28;;;;;;;;;;5093287;28;20032;-78
2023/08/18 01:02:22;;;;;;;0.10;0.10;;;;;;;;;;5093403;28;20081;-78
2023/08/18 01:04:48;;;;;;;0.15;0.15;;;;;;;;;;5092884;28;20028;-78
2023/08/18 01:07:14;;;;;;;0.10;0.10;;;;;;;;;;5093142;28;20024;-78
2023/08/18 01:09:40;;;;;;;0.13;0.10;;;;;;;;;;5093317;28;20028;-78
2023/08/18 01:12:12;;;;;;;0.05;0.05;;;;;;;;;;5093137;28;20024;-78
2023/08/18 01:14:38;;;;;;;0.10;0.05;;;;;;;;;;5093145;28;20473;-78
2023/08/18 01:17:13;;;;;;;0.05;0.05;;;;;;;;;;5092971;28;20465;-78
2023/08/18 01:19:39;;;;;;;0.25;0.25;;;;;;;;;;5092668;28;20128;-78
2023/08/18 01:22:11;;;;;;;0.10;0.10;;;;;;;;;;5093037;28;20510;-78
2023/08/18 01:24:37;;;;;;;0.17;0.17;;;;;;;;;;5092821;28;20057;-78
2023/08/18 01:27:03;;;;;;;0.10;0.10;;;;;;;;;;5093037;28;20140;-78
2023/08/18 01:29:29;;;;;;;0.00;0.00;;;;;;;;;;5092933;28;20034;-78
2023/08/18 01:31:56;;;;;;;0.10;0.10;;;;;;;;;;5092660;28;20031;-78
2023/08/18 01:34:24;;;;;;;0.00;0.00;;;;;;;;;;5093189;28;20039;-78
2023/08/18 01:36:51;;;;;;;0.00;0.00;;;;;;;;;;5092725;28;20412;-78
2023/08/18 01:39:18;;;;;;;0.10;0.10;;;;;;;;;;5092643;28;20035;-78
2023/08/18 01:41:45;;;;;;;0.10;0.10;;;;;;;;;;5092686;28;20059;-78
2023/08/18 01:44:14;;;;;;;0.00;0.00;;;;;;;;;;5091814;28;20030;-78
2023/08/18 01:46:41;;;;;;;0.00;0.00;;;;;;;;;;5092248;28;20508;-78
2023/08/18 01:49:07;;;;;;;0.10;0.10;;;;;;;;;;5092103;28;20442;-78
2023/08/18 01:51:33;;;;;;;0.10;0.10;;;;;;;;;;5092636;28;20491;-78
2023/08/18 01:53:59;;;;;;;0.00;0.00;;;;;;;;;;5092643;28;20028;-78
2023/08/18 01:56:25;;;;;;;0.10;0.10;;;;;;;;;;5092671;28;20430;-78
2023/08/18 01:58:51;;;;;;;0.10;0.10;;;;;;;;;;5092599;28;20029;-78
2023/08/18 02:01:17;;;;;;;0.10;0.10;;;;;;;;;;5092120;28;20032;-78
2023/08/18 02:03:43;;;;;;;0.10;0.10;;;;;;;;;;5092556;28;20040;-78
2023/08/18 02:06:09;;;;;;;0.10;0.10;;;;;;;;;;5092542;28;20031;-78
2023/08/18 02:08:35;;;;;;;0.03;0.03;;;;;;;;;;5092436;28;20039;-77
2023/08/18 02:11:05;;;;;;;0.00;0.00;;;;;;;;;;5092585;28;20033;-78
2023/08/18 02:13:31;;;;;;;0.00;0.00;;;;;;;;;;5092442;28;20032;-78
2023/08/18 02:15:58;;;;;;;0.10;0.10;;;;;;;;;;5092145;28;20024;-78
2023/08/18 02:18:24;;;;;;;0.52;0.32;;;;;;;;;;5092199;28;20043;-78
2023/08/18 02:20:56;;;;;;;0.15;0.15;;;;;;;;;;5092365;28;20033;-78
2023/08/18 02:23:23;;;;;;;0.00;0.00;;;;;;;;;;5092383;28;20027;-77
2023/08/18 02:25:49;;;;;;;2.15;0.20;;;;;;;;;;5092352;28;20047;-78
2023/08/18 02:28:16;;;;;;;0.30;0.30;;;;;;;;;;5092213;28;20020;-78
2023/08/18 02:30:42;;;;;;;0.13;0.13;;;;;;;;;;5091908;28;20051;-78
2023/08/18 02:33:08;;;;;;;0.00;0.00;;;;;;;;;;5092382;28;20469;-78
2023/08/18 02:35:34;;;;;;;0.10;0.10;;;;;;;;;;5092389;28;20039;-78
2023/08/18 02:38:00;;;;;;;0.17;0.17;;;;;;;;;;5092222;28;20161;-78
2023/08/18 02:40:26;;;;;;;0.10;0.10;;;;;;;;;;5092096;28;20035;-78
2023/08/18 02:42:52;;;;;;;0.00;0.00;;;;;;;;;;5092250;28;20101;-78
2023/08/18 02:45:18;;;;;;;0.00;0.00;;;;;;;;;;5091923;28;20024;-78
2023/08/18 02:47:45;;;;;;;0.00;0.00;;;;;;;;;;5092143;28;20024;-78
2023/08/18 02:50:11;;;;;;;0.55;0.22;;;;;;;;;;5092199;28;20024;-78
2023/08/18 02:52:37;;;;;;;0.10;0.10;;;;;;;;;;5092113;28;20449;-78
2023/08/18 02:55:03;;;;;;;0.13;0.13;;;;;;;;;;5092095;28;20115;-78
2023/08/18 02:57:29;;;;;;;0.10;0.10;;;;;;;;;;5094689;28;20024;-78
2023/08/18 02:59:55;;;;;;;0.00;0.00;;;;;;;;;;5095294;28;20063;-78
2023/08/18 03:02:21;;;;;;;0.10;0.10;;;;;;;;;;5095602;28;20032;-78
2023/08/18 03:04:47;;;;;;;0.13;0.13;;;;;;;;;;5095556;28;20073;-78
2023/08/18 03:07:13;;;;;;;0.00;0.00;;;;;;;;;;5095515;28;20100;-77
2023/08/18 03:09:39;;;;;;;0.00;0.00;;;;;;;;;;5095791;28;20464;-78
2023/08/18 03:12:05;;;;;;;0.10;0.10;;;;;;;;;;5095375;28;20036;-78
2023/08/18 03:14:31;;;;;;;0.00;0.00;;;;;;;;;;5095145;28;20097;-78
2023/08/18 03:16:57;;;;;;;0.10;0.10;;;;;;;;;;5095317;28;20468;-78
2023/08/18 03:19:24;;;;;;;0.52;0.50;;;;;;;;;;5095171;28;20044;-78
2023/08/18 03:21:50;;;;;;;0.00;0.00;;;;;;;;;;5095137;28;20032;-77
2023/08/18 03:24:17;;;;;;;0.05;0.05;;;;;;;;;;5095135;28;20024;-78
2023/08/18 03:26:43;;;;;;;0.00;0.00;;;;;;;;;;5095180;28;20032;-78
2023/08/18 03:29:09;;;;;;;0.00;0.00;;;;;;;;;;5094633;28;20016;-78
2023/08/18 03:31:35;;;;;;;0.00;0.00;;;;;;;;;;5095130;28;20421;-78
2023/08/18 03:34:01;;;;;;;0.00;0.00;;;;;;;;;;5095061;28;20024;-78
2023/08/18 03:36:27;;;;;;;0.00;0.00;;;;;;;;;;5094856;28;20107;-78
2023/08/18 03:38:53;;;;;;;0.10;0.10;;;;;;;;;;5095026;28;20024;-78
2023/08/18 03:41:19;;;;;;;0.03;0.03;;;;;;;;;;5094756;28;20370;-78
2023/08/18 03:43:45;;;;;;;0.08;0.08;;;;;;;;;;5094706;28;20040;-78
2023/08/18 03:46:27;;;;;;;0.10;0.10;;;;;;;;;;5094900;28;20031;-78
2023/08/18 03:48:53;;;;;;;0.00;0.00;;;;;;;;;;5094633;28;20030;-78
2023/08/18 03:51:19;;;;;;;0.00;0.00;;;;;;;;;;5094695;28;20024;-78
2023/08/18 03:53:45;;;;;;;0.10;0.10;;;;;;;;;;5094446;28;20073;-78
2023/08/18 03:56:11;;;;;;;0.10;0.10;;;;;;;;;;5094659;28;20028;-78
2023/08/18 03:58:37;;;;;;;0.05;0.05;;;;;;;;;;5075959;28;20455;-78
2023/08/18 04:01:05;;;;;;;0.20;0.20;;;;;;;;;;5094494;28;20416;-77
2023/08/18 04:03:31;;;;;;;0.10;0.10;;;;;;;;;;5094528;28;20024;-78
2023/08/18 04:05:58;;;;;;;0.00;0.00;;;;;;;;;;5094256;28;20493;-78
2023/08/18 04:08:24;;;;;;;0.10;0.10;;;;;;;;;;5075780;28;20377;-78
2023/08/18 04:10:50;;;;;;;0.00;0.00;;;;;;;;;;5094354;28;20020;-78
2023/08/18 04:13:16;;;;;;;0.00;0.00;;;;;;;;;;5093913;28;20032;-78
2023/08/18 04:15:41;;;;;;;0.00;0.00;;;;;;;;;;5094349;28;20035;-78
2023/08/18 04:18:07;;;;;;;0.32;0.32;;;;;;;;;;5093712;28;20027;-78
2023/08/18 04:20:35;;;;;;;0.00;0.00;;;;;;;;;;5094052;28;20103;-78
2023/08/18 04:23:01;;;;;;;0.10;0.10;;;;;;;;;;5093953;28;20499;-77
2023/08/18 04:25:27;;;;;;;0.10;0.10;;;;;;;;;;5093904;28;20028;-78
2023/08/18 04:27:53;;;;;;;0.10;0.10;;;;;;;;;;5093579;28;20052;-78
2023/08/18 04:30:19;;;;;;;0.00;0.00;;;;;;;;;;5093903;28;20119;-77
2023/08/18 04:32:45;;;;;;;0.20;0.20;;;;;;;;;;5093881;28;20056;-78
2023/08/18 04:35:11;;;;;;;0.25;0.25;;;;;;;;;;5093801;28;20026;-78
2023/08/18 04:37:37;;;;;;;0.00;0.00;;;;;;;;;;5093486;28;20033;-77
2023/08/18 04:40:04;;;;;;;0.03;0.03;;;;;;;;;;5093799;28;20034;-78
2023/08/18 04:42:31;;;;;;;0.10;0.10;;;;;;;;;;5092737;28;20032;-77
2023/08/18 04:44:57;;;;;;;0.00;0.00;;;;;;;;;;5093470;28;20028;-77
2023/08/18 04:47:23;;;;;;;0.52;0.20;;;;;;;;;;5092623;28;20153;-78
2023/08/18 04:49:49;;;;;;;0.25;0.10;;;;;;;;;;5093415;28;20066;-78
2023/08/18 04:52:15;;;;;;;0.25;0.17;;;;;;;;;;5092575;28;20545;-78
2023/08/18 04:54:41;;;;;;;0.20;0.20;;;;;;;;;;5093258;28;20060;-79
2023/08/18 04:57:07;;;;;;;0.70;0.35;;;;;;;;;;5093057;28;20031;-78
2023/08/18 04:59:33;;;;;;;0.10;0.10;;;;;;;;;;5092668;28;20035;-79
2023/08/18 05:01:59;;;;;;;0.00;0.00;;;;;;;;;;5092652;28;20535;-78
2023/08/18 05:04:25;;;;;;;0.20;0.20;;;;;;;;;;5092202;28;20024;-78
2023/08/18 05:06:51;;;;;;;0.35;0.25;;;;;;;;;;5092166;28;20035;-78
2023/08/18 05:09:18;;;;;;;0.43;0.43;;;;;;;;;;5092599;28;20077;-79
2023/08/18 05:11:44;;;;;;;0.20;0.20;;;;;;;;;;5092342;28;20048;-89
2023/08/18 05:14:10;;;;;;;0.55;0.55;;;;;;;;;;5074019;28;20488;-89
2023/08/18 05:16:36;;;;;;;0.20;0.20;;;;;;;;;;5092775;28;20024;-88
2023/08/18 05:19:02;;;;;;;0.20;0.20;;;;;;;;;;5092026;28;20048;-89
2023/08/18 05:21:28;;;;;;;0.50;0.30;;;;;;;;;;5093073;28;20047;-88
2023/08/18 05:23:54;;;;;;;0.98;0.82;;;;;;;;;;5092413;28;20020;-89
2023/08/18 05:26:20;;;;;;;0.40;0.40;;;;;;;;;;5093046;28;20480;-89
2023/08/18 05:28:47;;;;;;;0.10;0.10;;;;;;;;;;5092829;28;20020;-89
2023/08/18 05:31:13;;;;;;;0.10;0.10;;;;;;;;;;5092917;28;20051;-88
2023/08/18 05:33:39;;;;;;;0.20;0.20;;;;;;;;;;5092868;28;20469;-89
2023/08/18 05:36:05;;;;;;;0.30;0.30;;;;;;;;;;5092644;28;20039;-89
2023/08/18 05:38:32;;;;;;;0.10;0.10;;;;;;;;;;5091990;28;20028;-89
2023/08/18 05:41:08;;;;;;;0.03;0.03;;;;;;;;;;5092688;28;20115;-89
2023/08/18 05:43:35;;;;;;;0.20;0.20;;;;;;;;;;5092514;28;20078;-89
2023/08/18 05:46:01;;;;;;;0.28;0.17;;;;;;;;;;5074964;28;20028;-89
2023/08/18 05:48:29;;;;;;;0.20;0.20;;;;;;;;;;5092628;28;20032;-89
2023/08/18 05:50:55;;;;;;;0.30;0.30;;;;;;;;;;5092671;28;20024;-89
2023/08/18 05:53:21;;;;;;;0.32;0.30;;;;;;;;;;5092135;28;20020;-89
2023/08/18 05:55:47;;;;;;;1.02;0.85;;;;;;;;;;5092648;28;20454;-89
2023/08/18 05:58:13;;;;;;;0.10;0.10;;;;;;;;;;5092495;28;20035;-89
2023/08/18 06:00:39;;;;;;;0.13;0.13;;;;;;;;;;5092524;28;20024;-89
2023/08/18 06:03:05;;;;;;;0.38;0.38;;;;;;;;;;5092639;28;20032;-89
2023/08/18 06:05:31;;;;;;;0.10;0.10;;;;;;;;;;5092416;28;20085;-89
2023/08/18 06:07:57;;;;;;;0.45;0.30;;;;;;;;;;5092267;28;20386;-89
2023/08/18 06:10:23;;;;;;;0.20;0.20;;;;;;;;;;5092009;28;20028;-88
2023/08/18 06:12:49;;;;;;;1.00;0.68;;;;;;;;;;5092253;28;20036;-89
2023/08/18 06:15:17;;;;;;;0.40;0.40;;;;;;;;;;5092114;28;20021;-88
2023/08/18 06:17:43;;;;;;;0.10;0.10;;;;;;;;;;5092267;28;20491;-89
2023/08/18 06:20:09;;;;;;;0.45;0.45;;;;;;;;;;5092252;28;20044;-89
2023/08/18 06:22:36;;;;;;;0.30;0.30;;;;;;;;;;5091877;28;20036;-89
2023/08/18 06:25:03;;;;;;;0.10;0.10;;;;;;;;;;5092334;28;20380;-89
2023/08/18 06:27:29;;;;;;;0.40;0.40;;;;;;;;;;5074183;28;20035;-89
2023/08/18 06:29:55;;;;;;;0.10;0.10;;;;;;;;;;5092606;28;20020;-89
2023/08/18 06:32:21;;;;;;;0.20;0.20;;;;;;;;;;5095990;28;20485;-89
2023/08/18 06:34:47;;;;;;;0.10;0.10;;;;;;;;;;5095651;28;20032;-89
2023/08/18 06:37:13;;;;;;;0.17;0.17;;;;;;;;;;5094749;28;20032;-89
2023/08/18 06:39:39;;;;;;;0.10;0.10;;;;;;;;;;5095329;28;20020;-88
2023/08/18 06:42:05;;;;;;;0.10;0.10;;;;;;;;;;5095257;28;20139;-89
2023/08/18 06:44:32;;;;;;;0.17;0.17;;;;;;;;;;5094787;28;20016;-89
2023/08/18 06:46:58;;;;;;;0.10;0.10;;;;;;;;;;5094165;28;20382;-89
2023/08/18 06:49:24;;;;;;;1.27;0.38;;;;;;;;;;5077206;28;20487;-88
2023/08/18 06:51:50;;;;;;;0.35;0.25;;;;;;;;;;5095076;28;20051;-89
2023/08/18 06:54:16;;;;;;;0.10;0.10;;;;;;;;;;5095210;28;20028;-89
2023/08/18 06:56:43;;;;;;;0.55;0.20;;;;;;;;;;5095569;28;20032;-89
2023/08/18 06:59:10;;;;;;;0.10;0.10;;;;;;;;;;5095683;28;20026;-89
2023/08/18 07:01:36;;;;;;;0.10;0.10;;;;;;;;;;5095532;28;20032;-89
2023/08/18 07:04:04;;;;;;;0.10;0.10;;;;;;;;;;5095570;28;20016;-89
2023/08/18 07:06:30;;;;;;;0.10;0.10;;;;;;;;;;5095015;28;20484;-89
2023/08/18 07:08:56;;;;;;;0.15;0.15;;;;;;;;;;5095463;28;20016;-89
2023/08/18 07:11:22;;;;;;;0.13;0.13;;;;;;;;;;5095390;28;20077;-89
2023/08/18 07:13:48;;;;;;;0.30;0.30;;;;;;;;;;5095302;28;20066;-88
2023/08/18 07:16:14;;;;;;;0.08;0.08;;;;;;;;;;5095313;28;20111;-89
2023/08/18 07:18:40;;;;;;;0.15;0.13;;;;;;;;;;5095022;28;20044;-88
2023/08/18 07:21:06;;;;;;;0.10;0.10;;;;;;;;;;5095000;28;20048;-89
2023/08/18 07:23:32;;;;;;;0.10;0.10;;;;;;;;;;5095275;28;20031;-88
2023/08/18 07:25:58;;;;;;;0.15;0.15;;;;;;;;;;5094820;28;20031;-89
2023/08/18 07:28:25;;;;;;;0.30;0.30;;;;;;;;;;5094907;28;20465;-88
2023/08/18 07:30:51;;;;;;;0.28;0.28;;;;;;;;;;5094889;28;20035;-88
2023/08/18 07:33:17;;;;;;;0.45;0.45;;;;;;;;;;5095023;28;20392;-88
2023/08/18 07:35:45;;;;;;;0.20;0.20;;;;;;;;;;5094645;28;20034;-89
2023/08/18 07:38:11;;;;;;;0.10;0.10;;;;;;;;;;5094694;28;20036;-89
2023/08/18 07:40:37;;;;;;;1.13;0.85;;;;;;;;;;5094771;28;20438;-89
2023/08/18 07:43:03;;;;;;;0.22;0.22;;;;;;;;;;5094058;28;20102;-88
2023/08/18 07:45:29;;;;;;;0.10;0.10;;;;;;;;;;5094702;28;20024;-89
2023/08/18 07:47:57;;;;;;;0.52;0.50;;;;;;;;;;5094678;28;20035;-89
2023/08/18 07:50:23;;;;;;;1.08;0.47;;;;;;;;;;5094622;28;20449;-89
2023/08/18 07:52:49;;;;;;;0.75;0.75;;;;;;;;;;5094546;28;20027;-89
2023/08/18 07:55:15;;;;;;;0.57;0.50;;;;;;;;;;5094484;28;20050;-88
2023/08/18 07:57:41;;;;;;;0.10;0.10;;;;;;;;;;5094460;28;20028;-89
2023/08/18 08:00:13;;;;;;;0.32;0.32;;;;;;;;;;5094431;28;20051;-88
2023/08/18 08:02:39;;;;;;;1.60;0.35;;;;;;;;;;5094006;28;20043;-88
2023/08/18 08:05:06;;;;;;;0.63;0.63;;;;;;;;;;5094131;28;20028;-88
2023/08/18 08:07:35;;;;;;;0.35;0.28;;;;;;;;;;5093976;28;20078;-88
2023/08/18 08:10:04;;;;;;;0.50;0.50;;;;;;;;;;5094185;28;20092;-88
2023/08/18 08:12:31;;;;;;;0.30;0.30;;;;;;;;;;5094136;28;20361;-88
2023/08/18 08:14:58;;;;;;;0.13;0.13;;;;;;;;;;5094100;28;20028;-88
2023/08/18 08:17:24;;;;;;;0.65;0.57;;;;;;;;;;5094143;28;20481;-88
2023/08/18 08:19:50;;;;;;;0.20;0.20;;;;;;;;;;5093336;28;20047;-88
2023/08/18 08:22:16;;;;;;;0.10;0.10;;;;;;;;;;5091448;28;20449;-88
2023/08/18 08:24:43;;;;;;;0.50;0.50;;;;;;;;;;5093644;28;20028;-88
2023/08/18 08:27:09;;;;;;;5.38;0.73;;;;;;;;;;5093959;28;20020;-88
2023/08/18 08:29:35;;;;;;;1.50;0.45;;;;;;;;;;5093838;28;20028;-88
2023/08/18 08:32:01;;;;;;;1.50;1.08;;;;;;;;;;5075487;28;20027;-88
2023/08/18 08:34:27;;;;;;;0.68;0.40;;;;;;;;;;5093535;28;20405;-88
2023/08/18 08:36:53;;;;;;;0.30;0.30;;;;;;;;;;5093521;28;20032;-88
2023/08/18 08:39:19;;;;;;;0.20;0.20;;;;;;;;;;5093705;28;20020;-88
2023/08/18 08:41:45;;;;;;;0.55;0.28;;;;;;;;;;5093546;28;20489;-88
2023/08/18 08:44:12;;;;;;;1.45;0.82;;;;;;;;;;5088763;28;20024;-88
2023/08/18 08:46:40;;;;;;;0.30;0.30;;;;;;;;;;5093361;28;20499;-88
2023/08/18 08:49:07;;;;;;;0.47;0.45;;;;;;;;;;5093162;28;20024;-88
2023/08/18 08:51:37;;;;;;;0.35;0.35;;;;;;;;;;5093594;28;20552;-88
2023/08/18 08:54:04;;;;;;;0.30;0.30;;;;;;;;;;5092945;28;20039;-88
2023/08/18 08:56:31;;;;;;;0.50;0.50;;;;;;;;;;5092999;28;20020;-88
2023/08/18 08:58:57;;;;;;;0.65;0.40;;;;;;;;;;5093388;28;20024;-88
2023/08/18 09:01:23;;;;;;;0.22;0.22;;;;;;;;;;5093028;28;20404;-87
2023/08/18 09:03:51;;;;;;;0.22;0.22;;;;;;;;;;5092423;28;20016;-88
2023/08/18 09:06:17;;;;;;;1.55;0.60;;;;;;;;;;5093056;28;20032;-88
2023/08/18 09:08:43;;;;;;;1.40;0.82;;;;;;;;;;5093273;28;20023;-88
2023/08/18 09:11:10;;;;;;;0.20;0.20;;;;;;;;;;5092652;28;20024;-88
2023/08/18 09:13:36;;;;;;;0.65;0.65;;;;;;;;;;5092805;28;20020;-88
2023/08/18 09:16:04;;;;;;;1.00;0.57;;;;;;;;;;5091423;28;20403;-88
2023/08/18 09:18:32;;;;;;;0.25;0.25;;;;;;;;;;5092122;28;20044;-88
2023/08/18 09:21:00;;;;;;;0.20;0.20;;;;;;;;;;5092681;28;20040;-88
2023/08/18 09:23:28;;;;;;;1.08;0.70;;;;;;;;;;5091869;28;20048;-88
2023/08/18 09:25:57;;;;;;;0.40;0.40;;;;;;;;;;5092919;28;20020;-88
2023/08/18 09:28:24;;;;;;;1.30;0.75;;;;;;;;;;5092604;28;20423;-88
2023/08/18 09:30:50;;;;;;;1.13;0.88;;;;;;;;;;5092589;28;20016;-88
2023/08/18 09:33:16;;;;;;;0.15;0.15;;;;;;;;;;5092719;28;20092;-88
2023/08/18 09:35:42;;;;;;;0.55;0.55;;;;;;;;;;5092729;28;20016;-88
2023/08/18 09:38:12;;;;;;;0.20;0.20;;;;;;;;;;5092534;28;20043;-88
2023/08/18 09:40:38;;;;;;;0.15;0.15;;;;;;;;;;5092197;28;20020;-88
2023/08/18 09:43:04;;;;;;;0.32;0.32;;;;;;;;;;5091890;28;20040;-88
2023/08/18 09:45:32;;;;;;;0.40;0.40;;;;;;;;;;5085905;28;20023;-88
2023/08/18 09:48:00;;;;;;;0.38;0.30;;;;;;;;;;5094216;28;20032;-88
2023/08/18 09:50:26;;;;;;;0.43;0.40;;;;;;;;;;5091526;28;20500;-88
2023/08/18 09:52:54;;;;;;;1.42;0.55;;;;;;;;;;5092148;28;20063;-88
2023/08/18 09:55:26;;;;;;;0.47;0.47;;;;;;;;;;5092402;28;20472;-88
2023/08/18 09:58:07;;;;;;;0.45;0.40;;;;;;;;;;5096934;28;20134;-88
2023/08/18 10:00:33;;;;;;;0.57;0.52;;;;;;;;;;5092115;28;20032;-88
2023/08/18 10:03:00;;;;;;;0.30;0.30;;;;;;;;;;5092519;28;20056;-89
2023/08/18 10:05:27;;;;;;;0.17;0.17;;;;;;;;;;5093795;28;20073;-88
2023/08/18 10:07:53;;;;;;;0.10;0.10;;;;;;;;;;5091281;28;20388;-88
2023/08/18 10:10:20;;;;;;;0.88;0.70;;;;;;;;;;5104727;28;20484;-88
2023/08/18 10:12:46;;;;;;;0.30;0.30;;;;;;;;;;5096291;28;20020;-88
2023/08/18 10:15:12;;;;;;;0.28;0.28;;;;;;;;;;5077903;28;20024;-88
2023/08/18 10:17:38;;;;;;;2.55;0.98;;;;;;;;;;5095890;28;20024;-88
2023/08/18 10:20:05;;;;;;;0.50;0.50;;;;;;;;;;5083964;28;20078;-87
2023/08/18 10:22:33;;;;;;;0.30;0.30;;;;;;;;;;5115647;28;20051;-88
2023/08/18 10:24:59;;;;;;;0.20;0.20;;;;;;;;;;5095351;28;20488;-88
2023/08/18 10:27:25;;;;;;;0.50;0.50;;;;;;;;;;5095679;28;20024;-87
2023/08/18 10:29:52;;;;;;;0.30;0.30;;;;;;;;;;5077790;28;20082;-87
2023/08/18 10:32:18;;;;;;;0.63;0.63;;;;;;;;;;5095816;28;20028;-88
2023/08/18 10:34:44;;;;;;;0.13;0.13;;;;;;;;;;5096145;28;20031;-88
2023/08/18 10:37:15;;;;;;;0.57;0.57;;;;;;;;;;5095832;28;20127;-88
2023/08/18 10:39:41;;;;;;;0.20;0.20;;;;;;;;;;5095783;28;20023;-88
2023/08/18 10:42:08;;;;;;;0.10;0.10;;;;;;;;;;5096045;28;20495;-88
2023/08/18 10:44:34;;;;;;;0.40;0.40;;;;;;;;;;5077195;28;20028;-88
2023/08/18 10:47:03;;;;;;;0.85;0.82;;;;;;;;;;5094710;28;20032;-88
2023/08/18 10:49:30;;;;;;;0.13;0.13;;;;;;;;;;5095963;28;20061;-88
2023/08/18 10:51:56;;;;;;;0.77;0.73;;;;;;;;;;5095391;28;20485;-88
2023/08/18 10:54:23;;;;;;;0.20;0.20;;;;;;;;;;5095465;28;20028;-88
2023/08/18 10:56:49;;;;;;;0.30;0.30;;;;;;;;;;5095724;28;20099;-88
2023/08/18 10:59:16;;;;;;;0.50;0.50;;;;;;;;;;5095342;28;20055;-87
2023/08/18 11:01:42;;;;;;;0.28;0.28;;;;;;;;;;5095314;28;20043;-86
2023/08/18 11:04:09;;;;;;;0.20;0.20;;;;;;;;;;5095178;28;20028;-85
2023/08/18 11:06:35;;;;;;;1.13;0.68;;;;;;;;;;5094658;28;20024;-85
2023/08/18 11:09:04;;;;;;;0.30;0.30;;;;;;;;;;5094610;28;20038;-86
2023/08/18 11:11:30;;;;;;;0.25;0.25;;;;;;;;;;5095380;28;20024;-85
2023/08/18 11:13:56;;;;;;;0.30;0.30;;;;;;;;;;5094013;28;20125;-86
2023/08/18 11:16:23;;;;;;;0.50;0.50;;;;;;;;;;5095614;28;20016;-86
2023/08/18 11:18:51;;;;;;;0.08;0.08;;;;;;;;;;5094693;28;20123;-86
2023/08/18 11:21:18;;;;;;;0.43;0.43;;;;;;;;;;5095353;28;20040;-86
2023/08/18 11:23:44;;;;;;;0.63;0.55;;;;;;;;;;5113539;28;20099;-85
2023/08/18 11:26:10;;;;;;;0.32;0.32;;;;;;;;;;5098640;28;20824;-86
2023/08/18 11:28:36;;;;;;;0.38;0.38;;;;;;;;;;5107983;28;20053;-86
2023/08/18 11:31:08;;;;;;;0.20;0.20;;;;;;;;;;5096342;28;20392;-86
2023/08/18 11:33:34;;;;;;;0.30;0.30;;;;;;;;;;5094789;28;20066;-86
2023/08/18 11:36:00;;;;;;;0.60;0.60;;;;;;;;;;5094610;28;20408;-86
2023/08/18 11:38:26;;;;;;;0.35;0.35;;;;;;;;;;5094801;28;20476;-85
2023/08/18 11:40:52;;;;;;;4.30;0.95;;;;;;;;;;5094364;28;20099;-86
2023/08/18 11:43:21;;;;;;;0.95;0.88;;;;;;;;;;5093769;28;20031;-86
2023/08/18 11:45:48;;;;;;;1.27;0.60;;;;;;;;;;5094108;28;20040;-87
2023/08/18 11:48:13;;;;;;;0.40;0.40;;;;;;;;;;5092535;28;20036;-86
2023/08/18 11:50:42;;;;;;;0.20;0.20;;;;;;;;;;5093642;28;20094;-86
2023/08/18 11:53:09;;;;;;;0.22;0.22;;;;;;;;;;5094280;28;20027;-85
2023/08/18 11:55:36;;;;;;;2.10;0.90;;;;;;;;;;5094146;28;20050;-86
2023/08/18 11:58:07;;;;;;;0.70;0.68;;;;;;;;;;5094220;28;20015;-86
2023/08/18 12:00:37;;;;;;;1.05;0.60;;;;;;;;;;5093990;28;20024;-85
2023/08/18 12:03:04;;;;;;;1.00;0.90;;;;;;;;;;5094552;28;20039;-86
2023/08/18 12:05:31;;;;;;;0.73;0.50;;;;;;;;;;5094034;28;20093;-85
2023/08/18 12:07:58;;;;;;;0.30;0.30;;;;;;;;;;5094244;28;20024;-87
2023/08/18 12:10:24;;;;;;;0.40;0.40;;;;;;;;;;5093681;28;20016;-91
2023/08/18 12:12:58;;;;;;;0.40;0.40;;;;;;;;;;5093492;28;20035;-89
2023/08/18 12:15:25;;;;;;;0.28;0.28;;;;;;;;;;5093909;28;20025;-85
2023/08/18 12:17:52;;;;;;;0.30;0.30;;;;;;;;;;5093313;28;20031;-88
2023/08/18 12:20:18;;;;;;;0.30;0.30;;;;;;;;;;5093448;28;20048;-85
2023/08/18 12:22:46;;;;;;;0.30;0.30;;;;;;;;;;5092788;28;20132;-88
2023/08/18 12:25:12;;;;;;;0.22;0.22;;;;;;;;;;5093593;28;20489;-88
2023/08/18 12:27:38;;;;;;;29.60;1.80;;;;;;;;;;5092341;28;20130;-86
2023/08/18 12:30:04;;;;;;;0.32;0.30;;;;;;;;;;5093589;28;20051;-83
2023/08/18 12:32:32;;;;;;;0.30;0.30;;;;;;;;;;5093570;28;20028;-83
2023/08/18 12:34:58;;;;;;;0.20;0.20;;;;;;;;;;5092452;28;20071;-83
2023/08/18 12:37:24;;;;;;;0.20;0.20;;;;;;;;;;5093572;28;20039;-84
2023/08/18 12:39:50;;;;;;;0.38;0.38;;;;;;;;;;5092504;28;20028;-84
2023/08/18 12:42:16;;;;;;;0.20;0.20;;;;;;;;;;5092932;28;20484;-83
2023/08/18 12:44:42;;;;;;;0.17;0.17;;;;;;;;;;5093631;28;20073;-86
2023/08/18 12:47:08;;;;;;;0.65;0.65;;;;;;;;;;5092794;28;20085;-86
2023/08/18 12:49:34;;;;;;;0.65;0.47;;;;;;;;;;5093064;28;20032;-81
2023/08/18 12:52:00;;;;;;;0.40;0.40;;;;;;;;;;5093514;28;20028;-84
2023/08/18 12:54:28;;;;;;;0.63;0.45;;;;;;;;;;5093239;28;20035;-86
2023/08/18 12:56:54;;;;;;;0.20;0.20;;;;;;;;;;5092661;28;20062;-86
2023/08/18 12:59:21;;;;;;;0.35;0.20;;;;;;;;;;5093417;28;20055;-90
2023/08/18 13:01:47;;;;;;;0.17;0.17;;;;;;;;;;5093051;28;20117;-92
2023/08/18 13:04:13;;;;;;;0.30;0.30;;;;;;;;;;5093348;28;20035;-82
2023/08/18 13:06:39;;;;;;;0.40;0.40;;;;;;;;;;5092950;28;20028;-84
2023/08/18 13:09:05;;;;;;;0.32;0.32;;;;;;;;;;5092923;28;20026;-83
2023/08/18 13:11:33;;;;;;;0.13;0.13;;;;;;;;;;5093021;28;20472;-82
2023/08/18 13:14:02;;;;;;;0.13;0.13;;;;;;;;;;5092408;28;20031;-83
2023/08/18 13:16:31;;;;;;;0.47;0.47;;;;;;;;;;5074848;28;20068;-83
2023/08/18 13:18:57;;;;;;;0.25;0.25;;;;;;;;;;5092926;28;20036;-89
2023/08/18 13:21:23;;;;;;;0.65;0.50;;;;;;;;;;5074954;28;20051;-89
2023/08/18 13:23:49;;;;;;;0.47;0.40;;;;;;;;;;5092572;28;20016;-88
2023/08/18 13:26:15;;;;;;;0.32;0.32;;;;;;;;;;5093013;28;20030;-88
2023/08/18 13:28:41;;;;;;;0.32;0.30;;;;;;;;;;5092987;28;20020;-88
2023/08/18 13:31:08;;;;;;;0.30;0.30;;;;;;;;;;5092904;28;20493;-89
2023/08/18 13:33:34;;;;;;;0.10;0.10;;;;;;;;;;5092840;28;20028;-89
2023/08/18 13:36:00;;;;;;;0.25;0.25;;;;;;;;;;5092681;28;20104;-92
2023/08/18 13:38:26;;;;;;;0.20;0.20;;;;;;;;;;5092567;28;20024;-93
2023/08/18 13:40:52;;;;;;;0.50;0.50;;;;;;;;;;5092031;28;20515;-81
2023/08/18 13:43:18;;;;;;;0.20;0.20;;;;;;;;;;5092791;28;20035;-82
2023/08/18 13:45:45;;;;;;;2.38;0.85;;;;;;;;;;5092753;28;20024;-84
2023/08/18 13:48:12;;;;;;;0.10;0.10;;;;;;;;;;5092736;28;20032;-83
2023/08/18 13:50:38;;;;;;;0.13;0.13;;;;;;;;;;5092607;28;20025;-82
2023/08/18 13:53:05;;;;;;;0.32;0.32;;;;;;;;;;5092218;28;20115;-82
2023/08/18 13:55:31;;;;;;;0.22;0.22;;;;;;;;;;5092560;28;20028;-85
2023/08/18 13:57:57;;;;;;;0.20;0.20;;;;;;;;;;5092515;28;20025;-83
2023/08/18 14:00:23;;;;;;;0.35;0.35;;;;;;;;;;5092702;28;20027;-82
2023/08/18 14:02:49;;;;;;;0.25;0.25;;;;;;;;;;5092386;28;20039;-82
2023/08/18 14:05:17;;;;;;;0.65;0.35;;;;;;;;;;5092603;28;20020;-82
2023/08/18 14:07:43;;;;;;;0.32;0.32;;;;;;;;;;5092043;28;20077;-87
2023/08/18 14:10:09;;;;;;;0.30;0.30;;;;;;;;;;5090906;28;20098;-81
2023/08/18 14:12:37;;;;;;;0.20;0.17;;;;;;;;;;5091198;28;20513;-81
2023/08/18 14:15:03;;;;;;;0.30;0.17;;;;;;;;;;5092536;28;20073;-84
2023/08/18 14:17:34;;;;;;;0.17;0.17;;;;;;;;;;5092051;28;20397;-79
2023/08/18 14:20:00;;;;;;;0.20;0.17;;;;;;;;;;5092100;28;20082;-84
2023/08/18 14:22:26;;;;;;;0.15;0.15;;;;;;;;;;5072911;28;20043;-83
2023/08/18 14:24:52;;;;;;;0.55;0.30;;;;;;;;;;5091601;28;20392;-84
2023/08/18 14:27:18;;;;;;;0.15;0.15;;;;;;;;;;5092136;28;20039;-86
2023/08/18 14:29:44;;;;;;;9.18;0.82;;;;;;;;;;5092126;28;20504;-84
2023/08/18 14:32:10;;;;;;;0.40;0.40;;;;;;;;;;5092127;28;20028;-84
2023/08/18 14:34:36;;;;;;;0.38;0.38;;;;;;;;;;5092739;28;20031;-88
2023/08/18 14:37:02;;;;;;;0.40;0.40;;;;;;;;;;5092169;28;20035;-84
2023/08/18 14:39:28;;;;;;;1.20;0.47;;;;;;;;;;5084474;28;20492;-82